createdAt,value
2022-10-11T00:01:28.289Z,99.9
2022-10-11T00:03:33.790Z,99.9
2022-10-11T00:05:31.410Z,99.9
2022-10-11T00:07:29.056Z,99.9
2022-10-11T00:11:24.319Z,99.9
2022-10-11T00:13:21.945Z,99.9
2022-10-11T00:15:19.600Z,99.9
2022-10-11T00:17:25.155Z,99.9
2022-10-11T00:19:22.786Z,99.9
2022-10-11T00:21:20.404Z,99.9
2022-10-11T00:23:18.232Z,99.9
2022-10-11T00:25:15.688Z,99.9
2022-10-11T00:27:13.322Z,99.9
2022-10-11T00:33:14.172Z,99.9
2022-10-11T00:35:11.786Z,99.9
2022-10-11T00:37:09.385Z,99.9
2022-10-11T00:39:07.018Z,99.9
2022-10-11T00:41:04.673Z,99.9
2022-10-11T00:45:07.825Z,99.9
2022-10-11T00:54:01.129Z,99.9
2022-10-11T00:55:58.771Z,99.9
2022-10-11T00:58:04.312Z,99.9
2022-10-11T01:00:01.934Z,99.9
2022-10-11T01:01:59.564Z,99.9
2022-10-11T01:03:57.191Z,99.9
2022-10-11T01:05:54.833Z,99.9
2022-10-11T01:07:52.467Z,99.9
2022-10-11T01:09:50.797Z,99.9
2022-10-11T01:11:56.351Z,99.9
2022-10-11T01:13:53.981Z,99.9
2022-10-11T01:15:51.597Z,99.9
2022-10-11T01:17:49.229Z,99.9
2022-10-11T01:19:46.859Z,99.9
2022-10-11T01:21:44.472Z,99.9
2022-10-11T01:23:42.115Z,99.9
2022-10-11T01:25:47.622Z,99.9
2022-10-11T01:27:45.277Z,99.9
2022-10-11T01:29:42.904Z,99.9
2022-10-11T01:31:40.550Z,99.9
2022-10-11T01:35:35.797Z,99.9
2022-10-11T01:37:33.393Z,99.9
2022-10-11T01:39:38.949Z,99.9
2022-10-11T01:41:36.588Z,99.9
2022-10-11T01:43:34.240Z,99.9
2022-10-11T01:44:36.976Z,99.9
2022-10-11T01:46:34.615Z,99.9
2022-10-11T01:48:32.245Z,99.9
2022-10-11T01:50:29.876Z,99.9
2022-10-11T01:52:35.447Z,99.9
2022-10-11T01:56:30.661Z,99.9
2022-10-11T01:58:28.322Z,99.9
2022-10-11T02:02:23.572Z,99.9
2022-10-11T02:04:21.174Z,99.9
2022-10-11T02:06:26.734Z,99.9
2022-10-11T02:08:24.392Z,99.9
2022-10-11T02:10:21.976Z,99.9
2022-10-11T02:12:19.618Z,99.9
2022-10-11T02:14:17.251Z,99.9
2022-10-11T02:16:14.857Z,99.9
2022-10-11T02:18:12.483Z,99.9
2022-10-11T02:20:18.055Z,99.9
2022-10-11T02:24:13.311Z,99.9
2022-10-11T02:26:10.925Z,99.9
2022-10-11T02:28:08.619Z,99.9
2022-10-11T02:30:06.208Z,99.9
2022-10-11T02:32:03.841Z,99.9
2022-10-11T02:34:09.340Z,99.9
2022-10-11T02:36:07.852Z,99.9
2022-10-11T02:38:04.609Z,99.9
2022-10-11T02:45:00.249Z,99.9
2022-10-11T02:49:03.425Z,99.9
2022-10-11T02:51:01.031Z,99.9
2022-10-11T02:52:58.663Z,99.9
2022-10-11T02:54:56.281Z,99.9
2022-10-11T02:56:53.933Z,99.9
2022-10-11T02:58:51.551Z,99.9
2022-10-11T03:00:57.093Z,99.9
2022-10-11T03:02:54.716Z,99.9
2022-10-11T03:04:52.360Z,99.9
2022-10-11T03:06:49.962Z,99.9
2022-10-11T03:08:47.583Z,99.9
2022-10-11T03:10:45.217Z,99.9
2022-10-11T03:12:42.879Z,99.9
2022-10-11T03:14:48.375Z,99.9
2022-10-11T03:18:43.623Z,99.9
2022-10-11T03:20:41.265Z,99.9
2022-10-11T03:22:38.894Z,99.9
2022-10-11T03:24:36.529Z,99.9
2022-10-11T03:26:34.155Z,99.9
2022-10-11T03:28:39.815Z,99.9
2022-10-11T03:30:37.298Z,99.9
2022-10-11T03:32:34.931Z,99.9
2022-10-11T03:34:51.707Z,99.9
2022-10-11T03:36:49.336Z,99.9
2022-10-11T03:38:46.942Z,99.9
2022-10-11T03:40:52.498Z,99.9
2022-10-11T03:42:50.106Z,99.9
2022-10-11T03:44:47.722Z,99.9
2022-10-11T03:48:42.986Z,99.9
2022-10-11T03:52:38.199Z,99.9
2022-10-11T03:54:45.306Z,99.9
2022-10-11T03:56:42.877Z,99.9
2022-10-11T03:58:40.512Z,99.9
2022-10-11T04:00:38.123Z,99.9
2022-10-11T04:02:38.970Z,99.9
2022-10-11T04:04:33.373Z,99.9
2022-10-11T04:12:31.775Z,99.9
2022-10-11T04:14:29.386Z,99.9
2022-10-11T04:18:24.625Z,99.9
2022-10-11T04:20:22.259Z,99.9
2022-10-11T04:22:27.634Z,99.9
2022-10-11T04:26:22.880Z,99.9
2022-10-11T04:27:25.630Z,99.9
2022-10-11T04:29:23.277Z,99.9
2022-10-11T04:31:20.883Z,99.9
2022-10-11T04:33:18.524Z,99.9
2022-10-11T04:35:24.053Z,99.9
2022-10-11T04:37:21.638Z,99.9
2022-10-11T04:39:19.270Z,99.9
2022-10-11T04:41:16.876Z,99.9
2022-10-11T04:45:12.136Z,99.9
2022-10-11T04:47:09.778Z,99.9
2022-10-11T04:49:15.299Z,99.9
2022-10-11T04:53:10.558Z,99.9
2022-10-11T04:55:08.171Z,99.9
2022-10-11T04:57:05.789Z,99.9
2022-10-11T04:59:03.407Z,99.9
2022-10-11T05:01:01.025Z,99.9
2022-10-11T05:05:04.196Z,99.9
2022-10-11T05:07:01.814Z,99.9
2022-10-11T05:08:59.432Z,99.9
2022-10-11T05:10:57.068Z,99.9
2022-10-11T05:12:54.678Z,99.9
2022-10-11T05:14:52.317Z,99.9
2022-10-11T05:16:57.875Z,99.9
2022-10-11T05:20:53.107Z,99.9
2022-10-11T05:21:55.876Z,99.9
2022-10-11T05:23:53.572Z,99.9
2022-10-11T05:25:51.124Z,99.9
2022-10-11T05:27:48.747Z,99.9
2022-10-11T05:29:54.292Z,99.9
2022-10-11T05:31:51.902Z,99.9
2022-10-11T05:37:44.769Z,99.9
2022-10-11T05:39:42.392Z,99.9
2022-10-11T05:41:40.020Z,99.9
2022-10-11T05:43:45.568Z,99.9
2022-10-11T05:45:43.203Z,99.9
2022-10-11T05:47:40.814Z,99.9
2022-10-11T05:49:38.423Z,99.9
2022-10-11T05:51:36.057Z,99.9
2022-10-11T05:53:33.695Z,99.9
2022-10-11T05:55:31.313Z,99.9
2022-10-11T05:57:36.832Z,99.9
2022-10-11T05:59:34.442Z,99.9
2022-10-11T06:01:32.211Z,99.9
2022-10-11T06:03:29.693Z,99.9
2022-10-11T06:05:27.330Z,99.9
2022-10-11T06:07:24.956Z,99.9
2022-10-11T06:09:22.555Z,99.9
2022-10-11T06:11:28.098Z,99.9
2022-10-11T06:13:25.749Z,99.9
2022-10-11T06:15:23.366Z,99.9
2022-10-11T06:18:23.778Z,99.9
2022-10-11T06:20:21.379Z,99.9
2022-10-11T06:22:19.014Z,99.9
2022-10-11T06:24:24.545Z,99.9
2022-10-11T06:26:22.219Z,99.9
2022-10-11T06:28:19.888Z,99.9
2022-10-11T06:30:17.534Z,99.9
2022-10-11T06:34:12.739Z,99.9
2022-10-11T06:36:10.371Z,99.9
2022-10-11T06:38:15.905Z,99.9
2022-10-11T06:40:13.510Z,99.9
2022-10-11T06:42:11.147Z,99.9
2022-10-11T06:44:13.921Z,99.9
2022-10-11T06:48:04.004Z,99.9
2022-10-11T06:50:01.709Z,99.9
2022-10-11T06:52:07.323Z,99.9
2022-10-11T06:54:04.833Z,99.9
2022-10-11T06:56:02.775Z,99.9
2022-10-11T06:58:00.085Z,99.9
2022-10-11T06:59:57.712Z,99.9
2022-10-11T07:03:52.939Z,99.9
2022-10-11T07:06:02.229Z,99.9
2022-10-11T07:09:53.740Z,99.9
2022-10-11T07:14:14.255Z,99.9
2022-10-11T07:20:15.065Z,99.9
2022-10-11T07:22:12.698Z,99.9
2022-10-11T07:24:10.340Z,99.9
2022-10-11T07:26:08.502Z,99.9
2022-10-11T07:28:05.595Z,99.9
2022-10-11T07:30:03.243Z,99.9
2022-10-11T07:32:08.774Z,99.9
2022-10-11T07:34:06.421Z,99.9
2022-10-11T07:36:04.503Z,99.9
2022-10-11T07:38:01.709Z,99.9
2022-10-11T07:39:59.347Z,99.9
2022-10-11T07:41:56.980Z,99.9
2022-10-11T07:43:54.618Z,99.9
2022-10-11T07:46:00.143Z,99.9
2022-10-11T07:47:57.783Z,99.9
2022-10-11T07:49:55.424Z,99.9
2022-10-11T07:51:53.054Z,99.9
2022-10-11T07:53:50.688Z,99.9
2022-10-11T07:55:48.323Z,99.9
2022-10-11T08:01:49.213Z,99.9
2022-10-11T08:04:49.544Z,99.9
2022-10-11T08:06:51.073Z,99.9
2022-10-11T08:08:44.872Z,99.9
2022-10-11T08:10:42.510Z,99.9
2022-10-11T08:12:48.047Z,99.9
2022-10-11T08:14:45.676Z,99.9
2022-10-11T08:16:43.321Z,99.9
2022-10-11T08:18:40.953Z,99.9
2022-10-11T08:20:38.607Z,99.9
2022-10-11T08:26:39.453Z,99.9
2022-10-11T08:28:37.132Z,99.9
2022-10-11T08:30:34.701Z,99.9
2022-10-11T08:32:32.343Z,99.9
2022-10-11T08:34:29.958Z,99.9
2022-10-11T08:36:27.665Z,99.9
2022-10-11T08:38:25.238Z,99.9
2022-10-11T08:40:35.126Z,99.9
2022-10-11T08:42:28.465Z,99.9
2022-10-11T08:44:26.135Z,99.9
2022-10-11T08:48:21.433Z,99.9
2022-10-11T08:50:19.068Z,99.9
2022-10-11T08:52:16.695Z,99.9
2022-10-11T08:54:22.239Z,99.9
2022-10-11T08:56:19.899Z,99.9
2022-10-11T08:58:17.543Z,99.9
2022-10-11T09:01:18.651Z,99.8
2022-10-11T09:03:16.244Z,99.7
2022-10-11T09:05:13.864Z,99.5
2022-10-11T09:07:19.420Z,99.2
2022-10-11T09:09:17.082Z,99
2022-10-11T09:11:14.712Z,98.8
2022-10-11T09:13:12.377Z,98.5
2022-10-11T09:15:10.031Z,98.3
2022-10-11T09:17:07.672Z,98
2022-10-11T09:19:05.320Z,97.7
2022-10-11T09:21:10.902Z,96.9
2022-10-11T09:23:08.537Z,96.5
2022-10-11T09:25:06.200Z,95.9
2022-10-11T09:27:03.870Z,95.4
2022-10-11T09:29:01.714Z,94.8
2022-10-11T09:32:56.805Z,93.4
2022-10-11T09:35:02.352Z,92.2
2022-10-11T09:37:01.573Z,91.8
2022-10-11T09:42:54.454Z,87.9
2022-10-11T09:44:52.079Z,87.7
2022-10-11T09:52:50.563Z,85.4
2022-10-11T09:53:53.325Z,84.6
2022-10-11T09:55:50.976Z,84.2
2022-10-11T09:57:48.649Z,83.7
2022-10-11T09:59:46.294Z,82.2
2022-10-11T10:01:51.920Z,80.7
2022-10-11T10:03:49.505Z,80.1
2022-10-11T10:05:47.163Z,78.5
2022-10-11T10:07:44.797Z,78.3
2022-10-11T10:09:42.438Z,77.4
2022-10-11T10:11:40.088Z,77
2022-10-11T10:13:37.752Z,76.4
2022-10-11T10:17:40.955Z,75.3
2022-10-11T10:19:43.742Z,75.3
2022-10-11T10:21:36.256Z,75.1
2022-10-11T10:23:33.860Z,74.8
2022-10-11T10:25:31.510Z,74.7
2022-10-11T10:27:29.158Z,74.6
2022-10-11T10:29:34.726Z,73.6
2022-10-11T10:31:40.294Z,73.3
2022-10-11T10:33:29.985Z,73
2022-10-11T10:35:27.631Z,72.8
2022-10-11T10:41:20.531Z,72.2
2022-10-11T10:43:26.118Z,71.5
2022-10-11T10:45:23.689Z,71.2
2022-10-11T10:47:21.319Z,70.8
2022-10-11T10:49:54.129Z,68.4
2022-10-11T10:51:45.903Z,68.2
2022-10-11T10:53:43.541Z,67.5
2022-10-11T10:55:49.076Z,66
2022-10-11T10:57:46.713Z,65.7
2022-10-11T10:59:44.337Z,65.1
2022-10-11T11:01:42.011Z,64.2
2022-10-11T11:03:39.590Z,63.4
2022-10-11T11:07:34.772Z,62.5
2022-10-11T11:09:40.315Z,61.6
2022-10-11T11:13:35.514Z,60.9
2022-10-11T11:15:37.628Z,60.1
2022-10-11T11:17:30.682Z,59.9
2022-10-11T11:19:28.276Z,59.7
2022-10-11T11:21:25.866Z,59.5
2022-10-11T11:23:31.392Z,59.1
2022-10-11T11:25:28.974Z,58.9
2022-10-11T11:27:26.534Z,58.5
2022-10-11T11:29:24.059Z,58.2
2022-10-11T11:31:21.627Z,57.8
2022-10-11T11:33:19.209Z,57.4
2022-10-11T11:35:16.733Z,56.9
2022-10-11T11:37:22.238Z,55.8
2022-10-11T11:39:19.756Z,55.6
2022-10-11T11:41:17.431Z,55.5
2022-10-11T11:42:20.036Z,55.5
2022-10-11T11:44:17.576Z,55.4
2022-10-11T11:46:15.092Z,55.6
2022-10-11T11:48:12.607Z,55.6
2022-10-11T11:50:18.081Z,54.8
2022-10-11T11:56:10.628Z,54.4
2022-10-11T11:58:08.165Z,55.7
2022-10-11T12:00:05.687Z,56.4
2022-10-11T12:02:03.286Z,57.3
2022-10-11T12:04:08.710Z,57.9
2022-10-11T12:06:06.266Z,58.7
2022-10-11T12:08:03.799Z,59.1
2022-10-11T12:10:01.366Z,59.3
2022-10-11T12:11:58.932Z,59.7
2022-10-11T12:13:56.474Z,59.9
2022-10-11T12:15:54.040Z,59.9
2022-10-11T12:17:59.592Z,60
2022-10-11T12:19:57.153Z,60
2022-10-11T12:21:54.694Z,60.2
2022-10-11T12:23:52.288Z,60.8
2022-10-11T12:25:49.865Z,61.9
2022-10-11T12:27:47.446Z,62
2022-10-11T12:29:45.024Z,62
2022-10-11T12:31:50.532Z,56.7
2022-10-11T12:33:48.151Z,55.5
2022-10-11T12:35:45.709Z,51.7
2022-10-11T12:36:48.465Z,49.6
2022-10-11T12:38:46.017Z,48.1
2022-10-11T12:40:43.591Z,46.4
2022-10-11T12:42:41.130Z,45.7
2022-10-11T12:44:46.628Z,43
2022-10-11T12:46:44.165Z,42.3
2022-10-11T12:48:41.771Z,41.7
2022-10-11T12:50:39.216Z,40.4
2022-10-11T12:52:36.699Z,39.5
2022-10-11T12:54:37.085Z,39
2022-10-11T12:56:31.699Z,38.6
2022-10-11T12:58:37.162Z,37.5
2022-10-11T13:00:34.687Z,36.9
2022-10-11T13:02:32.094Z,36.4
2022-10-11T13:04:29.556Z,35.8
2022-10-11T13:06:26.993Z,34.8
2022-10-11T13:08:24.424Z,33.9
2022-10-11T13:16:22.023Z,32.9
2022-10-11T13:20:16.759Z,32.8
2022-10-11T13:22:14.128Z,32.7
2022-10-11T13:24:11.462Z,32.4
2022-10-11T13:26:16.814Z,31.7
2022-10-11T13:28:14.140Z,31
2022-10-11T13:30:11.435Z,30.6
2022-10-11T13:31:14.101Z,30.3
2022-10-11T13:33:11.405Z,30.1
2022-10-11T13:41:08.555Z,29.1
2022-10-11T13:43:05.832Z,28.9
2022-10-11T13:45:03.099Z,28.7
2022-10-11T13:50:54.839Z,31.8
2022-10-11T13:53:00.133Z,34.1
2022-10-11T13:54:57.405Z,34.8
2022-10-11T13:56:54.725Z,35.9
2022-10-11T13:58:52.052Z,36.8
2022-10-11T14:04:44.146Z,38.2
2022-10-11T14:06:50.098Z,38.6
2022-10-11T14:08:47.533Z,38.7
2022-10-11T14:10:44.947Z,38.8
2022-10-11T14:12:42.384Z,38.8
2022-10-11T14:16:37.337Z,39.4
2022-10-11T14:18:34.815Z,40.6
2022-10-11T14:20:40.259Z,41.3
2022-10-11T14:22:37.747Z,41.6
2022-10-11T14:24:36.397Z,41.9
2022-10-11T14:27:02.098Z,42.1
2022-10-11T14:28:59.587Z,42.2
2022-10-11T14:30:57.129Z,42.3
2022-10-11T14:33:02.620Z,42.1
2022-10-11T14:35:00.145Z,42
2022-10-11T14:36:57.668Z,42
2022-10-11T14:38:55.221Z,42.1
2022-10-11T14:40:52.791Z,42.3
2022-10-11T14:42:50.337Z,42.8
2022-10-11T14:44:47.882Z,43.2
2022-10-11T14:46:54.830Z,45.1
2022-10-11T14:48:55.578Z,45.5
2022-10-11T14:50:48.569Z,46
2022-10-11T14:52:46.149Z,46.6
2022-10-11T14:54:43.744Z,46.9
2022-10-11T14:56:41.308Z,47.4
2022-10-11T14:58:38.913Z,47.8
2022-10-11T15:02:41.992Z,48.4
2022-10-11T15:06:37.185Z,48.4
2022-10-11T15:08:34.796Z,48.3
2022-10-11T15:10:32.406Z,48.1
2022-10-11T15:12:29.984Z,48.1
2022-10-11T15:18:32.305Z,47.8
2022-10-11T15:19:35.030Z,47.4
2022-10-11T15:21:32.622Z,47.2
2022-10-11T15:23:30.218Z,47.2
2022-10-11T15:25:27.836Z,47.2
2022-10-11T15:27:33.397Z,47.4
2022-10-11T15:29:31.014Z,47.7
2022-10-11T15:31:28.633Z,47.9
2022-10-11T15:33:26.249Z,48.1
2022-10-11T15:35:23.830Z,48.4
2022-10-11T15:37:21.595Z,48.7
2022-10-11T15:39:19.081Z,49
2022-10-11T15:41:24.613Z,49.3
2022-10-11T15:43:24.692Z,49.5
2022-10-11T15:45:19.848Z,49.7
2022-10-11T15:47:17.493Z,49.9
2022-10-11T15:53:10.417Z,50.7
2022-10-11T15:55:15.944Z,51.1
2022-10-11T15:57:13.559Z,51.3
2022-10-11T15:59:11.192Z,51.4
2022-10-11T16:01:09.113Z,51.6
2022-10-11T16:03:06.423Z,51.8
2022-10-11T16:07:01.678Z,52.3
2022-10-11T16:13:02.635Z,53.3
2022-10-11T16:14:05.287Z,53.7
2022-10-11T16:16:03.272Z,54
2022-10-11T16:18:00.561Z,54.3
2022-10-11T16:19:58.269Z,54.6
2022-10-11T16:22:03.757Z,55.4
2022-10-11T16:24:01.404Z,55.6
2022-10-11T16:25:59.038Z,55.9
2022-10-11T16:27:56.664Z,56.4
2022-10-11T16:29:54.310Z,56.8
2022-10-11T16:31:51.969Z,57.2
2022-10-11T16:33:49.611Z,57.6
2022-10-11T16:35:55.215Z,58.2
2022-10-11T16:37:52.830Z,58.4
2022-10-11T16:39:50.464Z,58.7
2022-10-11T16:41:48.122Z,59
2022-10-11T16:43:45.776Z,59.4
2022-10-11T16:45:43.419Z,59.8
2022-10-11T16:47:41.056Z,60.3
2022-10-11T16:49:46.621Z,61.3
2022-10-11T16:51:44.286Z,61.7
2022-10-11T16:53:41.925Z,62
2022-10-11T16:55:39.713Z,62.4
2022-10-11T16:57:37.242Z,62.8
2022-10-11T16:59:34.881Z,63.1
2022-10-11T17:01:32.544Z,63.5
2022-10-11T17:03:38.090Z,64.3
2022-10-11T17:05:35.789Z,64.6
2022-10-11T17:07:33.386Z,64.9
2022-10-11T17:08:36.174Z,65.2
2022-10-11T17:10:33.850Z,65.4
2022-10-11T17:12:31.472Z,65.5
2022-10-11T17:14:29.131Z,65.8
2022-10-11T17:18:32.363Z,66.7
2022-10-11T17:20:29.990Z,66.9
2022-10-11T17:22:27.728Z,67.1
2022-10-11T17:28:20.707Z,66.7
2022-10-11T17:30:26.233Z,66.9
2022-10-11T17:32:23.898Z,67.1
2022-10-11T17:34:21.540Z,67.3
2022-10-11T17:36:19.191Z,67.8
2022-10-11T17:38:16.840Z,68.3
2022-10-11T17:40:14.516Z,68.8
2022-10-11T17:42:12.163Z,69.2
2022-10-11T17:44:17.730Z,70.3
2022-10-11T17:50:10.668Z,71.8
2022-10-11T17:52:08.307Z,72.2
2022-10-11T17:54:05.951Z,72.7
2022-10-11T17:56:03.625Z,73.2
2022-10-11T17:58:09.191Z,74.5
2022-10-11T18:00:06.920Z,75
2022-10-11T18:02:04.460Z,75.8
2022-10-11T18:04:25.503Z,76.9
2022-10-11T18:06:23.153Z,77.3
2022-10-11T18:08:20.829Z,77.8
2022-10-11T18:10:26.386Z,78.8
2022-10-11T18:12:24.039Z,79.1
2022-10-11T18:14:21.677Z,79.7
2022-10-11T18:16:19.354Z,80.5
2022-10-11T18:18:17.015Z,81.3
2022-10-11T18:20:14.633Z,82.7
2022-10-11T18:22:12.300Z,83.2
2022-10-11T18:24:17.896Z,84.4
2022-10-11T18:26:15.531Z,84.9
2022-10-11T18:28:13.255Z,85.2
2022-10-11T18:30:10.814Z,85.8
2022-10-11T18:32:08.453Z,86.3
2022-10-11T18:34:06.115Z,86.8
2022-10-11T18:36:03.750Z,87.2
2022-10-11T18:38:09.340Z,88.1
2022-10-11T18:40:06.985Z,88.5
2022-10-11T18:42:04.638Z,88.9
2022-10-11T18:44:02.275Z,89.2
2022-10-11T18:45:59.971Z,89.4
2022-10-11T18:47:57.604Z,89.4
2022-10-11T18:49:55.245Z,89.2
2022-10-11T18:52:00.832Z,88.8
2022-10-11T18:53:58.472Z,88.6
2022-10-11T18:55:56.146Z,88.5
2022-10-11T18:58:56.599Z,88.9
2022-10-11T19:02:51.921Z,89.6
2022-10-11T19:06:55.143Z,91
2022-10-11T19:10:50.459Z,91.4
2022-10-11T19:12:48.097Z,91.7
2022-10-11T19:18:48.983Z,92.2
2022-10-11T19:20:46.627Z,92.1
2022-10-11T19:22:44.304Z,91.9
2022-10-11T19:24:41.943Z,91.6
2022-10-11T19:26:39.570Z,91.3
2022-10-11T19:28:37.265Z,91.1
2022-10-11T19:30:34.880Z,91
2022-10-11T19:32:40.461Z,91.2
2022-10-11T19:34:38.103Z,91.3
2022-10-11T19:36:36.828Z,91.6
2022-10-11T19:40:33.135Z,92.1
2022-10-11T19:42:28.876Z,92.3
2022-10-11T19:44:26.399Z,92.5
2022-10-11T19:46:50.928Z,92.8
2022-10-11T19:48:29.677Z,92.8
2022-10-11T19:50:27.320Z,92.7
2022-10-11T19:51:30.093Z,92.6
2022-10-11T19:53:27.770Z,92.4
2022-10-11T19:55:25.427Z,92.3
2022-10-11T19:57:23.084Z,92.1
2022-10-11T19:59:28.653Z,92
2022-10-11T20:01:26.346Z,92
2022-10-11T20:03:23.957Z,92
2022-10-11T20:05:21.629Z,92
2022-10-11T20:07:19.283Z,92.2
2022-10-11T20:09:29.180Z,92.3
2022-10-11T20:11:14.584Z,92.5
2022-10-11T20:13:20.156Z,93
2022-10-11T20:15:17.790Z,93.3
2022-10-11T20:17:15.467Z,93.6
2022-10-11T20:19:13.123Z,93.9
2022-10-11T20:21:10.767Z,94.1
2022-10-11T20:23:08.449Z,94.4
2022-10-11T20:25:06.091Z,94.5
2022-10-11T20:27:11.695Z,94.6
2022-10-11T20:29:09.354Z,94.7
2022-10-11T20:31:06.987Z,94.7
2022-10-11T20:33:04.655Z,94.8
2022-10-11T20:35:02.312Z,94.7
2022-10-11T20:36:59.962Z,94.6
2022-10-11T20:38:57.640Z,94.3
2022-10-11T20:41:03.202Z,93.7
2022-10-11T20:43:00.849Z,93.3
2022-10-11T20:44:58.505Z,93.2
2022-10-11T20:47:58.948Z,93.2
2022-10-11T20:49:56.608Z,93.3
2022-10-11T20:51:54.277Z,93.6
2022-10-11T20:53:59.836Z,94.1
2022-10-11T20:55:57.493Z,94.3
2022-10-11T20:57:55.163Z,94.5
2022-10-11T20:59:54.383Z,94.6
2022-10-11T21:01:51.992Z,94.6
2022-10-11T21:03:49.634Z,94.8
2022-10-11T21:05:47.285Z,94.8
2022-10-11T21:07:52.854Z,94.6
2022-10-11T21:09:50.518Z,94.5
2022-10-11T21:13:45.854Z,94
2022-10-11T21:15:43.511Z,93.7
2022-10-11T21:17:41.155Z,93.6
2022-10-11T21:19:38.829Z,93.5
2022-10-11T21:21:46.422Z,93.4
2022-10-11T21:23:42.041Z,93.3
2022-10-11T21:25:39.686Z,93.3
2022-10-11T21:27:37.335Z,93.3
2022-10-11T21:31:34.394Z,93.2
2022-10-11T21:33:30.298Z,93.2
2022-10-11T21:35:35.850Z,93.2
2022-10-11T21:37:33.666Z,93.2
2022-10-11T21:39:31.149Z,93.2
2022-10-11T21:41:51.964Z,93.1
2022-10-11T21:43:49.617Z,93.1
2022-10-11T21:45:47.268Z,93
2022-10-11T21:47:52.829Z,92.9
2022-10-11T21:49:50.480Z,92.8
2022-10-11T21:51:48.145Z,92.8
2022-10-11T21:53:45.783Z,92.7
2022-10-11T21:55:43.436Z,92.7
2022-10-11T21:57:41.090Z,92.7
2022-10-11T21:59:38.757Z,92.6
2022-10-11T22:03:41.969Z,92.4
2022-10-11T22:05:39.616Z,92.3
2022-10-11T22:07:37.248Z,92.4
2022-10-11T22:09:34.943Z,92.7
2022-10-11T22:11:32.578Z,93
2022-10-11T22:13:30.234Z,93.4
2022-10-11T22:15:35.794Z,94.1
2022-10-11T22:17:33.457Z,94.4
2022-10-11T22:19:31.119Z,94.7
2022-10-11T22:21:28.760Z,95
2022-10-11T22:23:26.406Z,95.1
2022-10-11T22:25:24.061Z,95.3
2022-10-11T22:27:21.705Z,95.5
2022-10-11T22:33:22.555Z,95.9
2022-10-11T22:34:25.348Z,95.7
2022-10-11T22:36:22.985Z,95.4
2022-10-11T22:38:20.657Z,95
2022-10-11T22:40:18.301Z,94.9
2022-10-11T22:42:26.884Z,94.8
2022-10-11T22:44:21.501Z,94.9
2022-10-11T22:46:19.161Z,95.2
2022-10-11T22:48:16.818Z,95.4
2022-10-11T22:50:14.463Z,95.5
2022-10-11T22:52:12.111Z,95.5
2022-10-11T22:54:09.769Z,95.6
2022-10-11T22:56:15.320Z,95.5
2022-10-11T22:58:12.976Z,95.5
2022-10-11T23:08:01.176Z,94.7
2022-10-11T23:12:04.401Z,94.7
2022-10-11T23:14:02.030Z,94.7
2022-10-11T23:15:59.745Z,94.6
2022-10-11T23:17:57.311Z,94.5
2022-10-11T23:19:54.976Z,94.4
2022-10-11T23:21:52.588Z,94.4
2022-10-11T23:23:58.127Z,94.6
2022-10-11T23:25:55.768Z,94.7
2022-10-11T23:27:53.435Z,94.9
2022-10-11T23:28:56.203Z,95
2022-10-11T23:30:53.851Z,95.1
2022-10-11T23:32:51.489Z,95.1
2022-10-11T23:34:49.158Z,95.2
2022-10-11T23:36:54.725Z,95.2
2022-10-11T23:38:52.350Z,95.2
2022-10-11T23:40:49.995Z,95.2
2022-10-11T23:42:47.657Z,95.2
2022-10-11T23:44:45.285Z,95.1
2022-10-11T23:46:42.940Z,95.1
2022-10-11T23:48:40.579Z,95.1
2022-10-11T23:50:46.158Z,95.2
2022-10-11T23:52:43.803Z,95.2
2022-10-11T23:54:41.436Z,95.2
2022-10-11T23:56:39.070Z,95.2
2022-10-11T23:58:36.725Z,95.2
